createdAt,value
2023-04-15T00:01:43.834Z,4.17
2023-04-15T00:04:13.721Z,4.28
2023-04-15T00:06:43.641Z,4.30
2023-04-15T00:09:14.031Z,4.65
2023-04-15T00:11:43.849Z,4.33
2023-04-15T00:14:14.434Z,4.12
2023-04-15T00:16:44.377Z,4.57
2023-04-15T00:19:14.323Z,4.47
2023-04-15T00:21:43.930Z,4.90
2023-04-15T00:24:13.570Z,4.60
2023-04-15T00:26:43.703Z,5.00
2023-04-15T00:29:13.614Z,5.03
2023-04-15T00:31:43.499Z,4.87
2023-04-15T00:34:13.956Z,4.97
2023-04-15T00:36:45.780Z,4.58
2023-04-15T00:39:17.378Z,5.67
2023-04-15T00:41:47.742Z,5.23
2023-04-15T00:44:18.858Z,5.33
2023-04-15T00:46:51.750Z,5.62
2023-04-15T00:49:21.955Z,5.33
2023-04-15T00:51:52.374Z,5.28
2023-04-15T00:54:23.254Z,4.60
2023-04-15T00:56:53.141Z,5.03
2023-04-15T00:59:23.101Z,4.87
2023-04-15T01:01:53.150Z,4.67
2023-04-15T01:04:23.181Z,5.60
2023-04-15T01:06:53.069Z,5.43
2023-04-15T01:09:22.965Z,5.57
2023-04-15T01:11:53.771Z,5.28
2023-04-15T01:14:23.276Z,5.35
2023-04-15T01:16:54.736Z,5.83
2023-04-15T01:19:24.527Z,5.93
2023-04-15T01:21:54.991Z,5.60
2023-04-15T01:24:27.209Z,6.12
2023-04-15T01:26:57.025Z,6.17
2023-04-15T01:29:27.488Z,6.33
2023-04-15T01:31:58.126Z,5.87
2023-04-15T01:34:29.440Z,5.73
2023-04-15T01:36:59.539Z,5.90
2023-04-15T01:39:29.453Z,6.40
2023-04-15T01:41:59.265Z,6.63
2023-04-15T01:44:29.058Z,5.97
2023-04-15T01:46:59.033Z,6.33
2023-04-15T01:49:29.123Z,6.20
2023-04-15T01:51:58.997Z,6.80
2023-04-15T01:54:28.488Z,6.37
2023-04-15T01:56:58.797Z,6.05
2023-04-15T01:59:28.587Z,6.17
2023-04-15T02:01:58.838Z,6.90
2023-04-15T02:04:29.474Z,6.43
2023-04-15T02:07:01.724Z,6.40
2023-04-15T02:12:02.065Z,6.60
2023-04-15T02:14:32.232Z,7.37
2023-04-15T02:17:03.726Z,6.73
2023-04-15T02:19:34.067Z,6.67
2023-04-15T02:22:08.469Z,6.20
2023-04-15T02:24:38.558Z,6.37
2023-04-15T02:27:08.461Z,6.57
2023-04-15T02:29:38.312Z,6.80
2023-04-15T02:32:11.983Z,6.63
2023-04-15T02:34:42.869Z,6.57
2023-04-15T02:37:14.275Z,6.90
2023-04-15T02:39:44.082Z,6.83
2023-04-15T02:42:14.032Z,7.30
2023-04-15T02:44:44.418Z,7.27
2023-04-15T02:50:40.510Z,7.60
2023-04-15T02:53:11.256Z,7.75
2023-04-15T02:55:42.765Z,7.87
2023-04-15T02:58:13.171Z,7.58
2023-04-15T03:00:42.986Z,7.33
2023-04-15T03:03:15.199Z,6.93
2023-04-15T03:05:45.871Z,7.03
2023-04-15T03:08:15.877Z,7.90
2023-04-15T03:10:45.713Z,7.13
2023-04-15T03:13:15.945Z,7.95
2023-04-15T03:15:48.407Z,7.87
2023-04-15T03:18:18.115Z,7.20
2023-04-15T03:20:48.171Z,8.00
2023-04-15T03:23:18.206Z,7.80
2023-04-15T03:25:48.222Z,6.97
2023-04-15T03:28:18.049Z,7.63
2023-04-15T03:30:48.175Z,7.37
2023-04-15T03:33:18.081Z,7.17
2023-04-15T03:35:47.979Z,7.73
2023-04-15T03:38:17.920Z,7.08
2023-04-15T03:40:48.546Z,7.60
2023-04-15T03:43:18.504Z,7.97
2023-04-15T03:45:48.296Z,7.30
2023-04-15T03:48:18.522Z,8.43
2023-04-15T03:50:48.456Z,7.40
2023-04-15T03:53:18.597Z,7.78
2023-04-15T03:55:48.486Z,7.60
2023-04-15T03:58:18.778Z,7.63
2023-04-15T04:00:48.616Z,7.23
2023-04-15T04:03:19.057Z,7.58
2023-04-15T04:05:49.328Z,7.43
2023-04-15T04:08:19.689Z,7.63
2023-04-15T04:10:49.561Z,8.03
2023-04-15T04:13:19.712Z,7.97
2023-04-15T04:15:49.584Z,7.53
2023-04-15T04:18:19.106Z,7.87
2023-04-15T04:20:49.053Z,7.63
2023-04-15T04:23:19.026Z,7.83
2023-04-15T04:25:48.926Z,6.90
2023-04-15T04:28:18.811Z,6.72
2023-04-15T04:30:48.617Z,8.20
2023-04-15T04:33:18.732Z,8.15
2023-04-15T04:35:48.536Z,7.53
2023-04-15T04:38:18.057Z,8.00
2023-04-15T04:40:48.277Z,8.18
2023-04-15T04:43:18.241Z,8.80
2023-04-15T04:45:47.910Z,8.55
2023-04-15T04:48:18.242Z,8.30
2023-04-15T04:50:48.066Z,8.43
2023-04-15T04:53:18.298Z,8.10
2023-04-15T04:55:48.253Z,9.07
2023-04-15T04:58:17.782Z,8.23
2023-04-15T05:00:47.810Z,8.37
2023-04-15T05:03:17.851Z,8.67
2023-04-15T05:05:49.258Z,9.47
2023-04-15T05:08:19.022Z,9.63
2023-04-15T05:10:49.263Z,9.18
2023-04-15T05:13:19.352Z,9.47
2023-04-15T05:15:49.492Z,10.50
2023-04-15T05:18:19.330Z,9.63
2023-04-15T05:20:50.164Z,9.33
2023-04-15T05:23:20.067Z,10.73
2023-04-15T05:25:50.212Z,10.53
2023-04-15T05:28:20.183Z,10.27
2023-04-15T05:30:50.178Z,10.43
2023-04-15T05:33:20.084Z,10.37
2023-04-15T05:35:50.458Z,9.80
2023-04-15T05:38:20.145Z,10.00
2023-04-15T05:40:50.295Z,10.08
2023-04-15T05:43:20.707Z,11.00
2023-04-15T05:45:50.602Z,10.73
2023-04-15T05:48:20.330Z,10.30
2023-04-15T05:50:50.144Z,9.70
2023-04-15T05:53:20.177Z,10.70
2023-04-15T05:55:50.337Z,10.25
2023-04-15T05:58:20.075Z,10.47
2023-04-15T06:00:50.008Z,11.00
2023-04-15T06:03:20.061Z,10.43
2023-04-15T06:05:49.920Z,10.50
2023-04-15T06:08:19.734Z,9.70
2023-04-15T06:10:49.669Z,9.57
2023-04-15T06:13:19.237Z,9.45
2023-04-15T06:15:49.512Z,9.30
2023-04-15T06:18:20.129Z,9.83
2023-04-15T06:20:50.131Z,10.07
2023-04-15T06:23:20.038Z,10.23
2023-04-15T06:25:49.869Z,10.53
2023-04-15T06:28:19.428Z,9.83
2023-04-15T06:30:49.349Z,9.90
2023-04-15T06:33:19.155Z,10.47
2023-04-15T06:35:49.694Z,10.47
2023-04-15T06:38:19.251Z,10.13
2023-04-15T06:40:49.394Z,9.57
2023-04-15T06:43:19.687Z,9.73
2023-04-15T06:45:49.512Z,10.27
2023-04-15T06:48:19.285Z,10.33
2023-04-15T06:50:50.145Z,9.83
2023-04-15T06:53:20.569Z,10.43
2023-04-15T06:55:50.969Z,10.07
2023-04-15T06:58:21.118Z,10.93
2023-04-15T07:00:52.121Z,9.85
2023-04-15T07:03:22.410Z,10.07
2023-04-15T07:05:52.709Z,10.07
2023-04-15T07:08:22.635Z,10.27
2023-04-15T07:10:52.471Z,9.93
2023-04-15T07:13:22.399Z,9.87
2023-04-15T07:15:52.209Z,9.37
2023-04-15T07:18:22.205Z,9.17
2023-04-15T07:20:52.694Z,8.63
2023-04-15T07:23:22.574Z,7.93
2023-04-15T07:25:52.370Z,8.83
2023-04-15T07:28:22.170Z,8.67
2023-04-15T07:30:52.413Z,8.80
2023-04-15T07:33:22.220Z,7.50
2023-04-15T07:35:52.093Z,8.30
2023-04-15T07:38:21.676Z,8.63
2023-04-15T07:40:51.632Z,9.03
2023-04-15T07:43:21.997Z,8.27
2023-04-15T07:45:52.175Z,9.03
2023-04-15T07:48:22.091Z,9.00
2023-04-15T07:50:52.769Z,8.20
2023-04-15T07:53:23.055Z,8.08
2023-04-15T07:55:52.870Z,7.73
2023-04-15T07:58:22.986Z,7.85
2023-04-15T08:00:55.153Z,7.70
2023-04-15T08:03:25.037Z,7.10
2023-04-15T08:05:55.169Z,7.85
2023-04-15T08:08:25.426Z,7.07
2023-04-15T08:10:55.304Z,6.73
2023-04-15T08:13:25.124Z,6.80
2023-04-15T08:16:16.087Z,6.70
2023-04-15T08:18:46.649Z,6.37
2023-04-15T08:21:17.639Z,6.03
2023-04-15T08:23:50.073Z,6.20
2023-04-15T08:26:21.257Z,6.35
2023-04-15T08:28:51.757Z,5.90
2023-04-15T08:31:22.251Z,5.33
2023-04-15T08:33:53.438Z,4.93
2023-04-15T08:36:23.280Z,5.00
2023-04-15T08:38:53.112Z,4.67
2023-04-15T08:41:25.327Z,5.07
2023-04-15T08:44:04.155Z,4.60
2023-04-15T08:46:35.025Z,4.93
2023-04-15T08:49:07.094Z,5.60
2023-04-15T08:51:37.620Z,5.53
2023-04-15T08:54:13.975Z,5.10
2023-04-15T08:56:43.873Z,4.90
2023-04-15T08:59:13.962Z,5.47
2023-04-15T09:01:44.425Z,5.70
2023-04-15T09:04:15.220Z,5.17
2023-04-15T09:06:44.869Z,5.50
2023-04-15T09:09:14.886Z,5.00
2023-04-15T09:11:44.705Z,5.00
2023-04-15T09:14:14.517Z,4.27
2023-04-15T09:17:03.902Z,3.40
2023-04-15T09:19:36.522Z,3.37
2023-04-15T09:22:08.179Z,2.50
2023-04-15T09:24:42.174Z,2.80
2023-04-15T09:27:12.214Z,2.73
2023-04-15T09:29:43.244Z,2.53
2023-04-15T09:32:17.061Z,2.30
2023-04-15T09:34:47.994Z,2.13
2023-04-15T09:37:31.710Z,2.07
2023-04-15T09:39:52.974Z,2.23
2023-04-15T09:42:26.710Z,2.35
2023-04-15T09:44:56.663Z,2.20
2023-04-15T09:47:33.068Z,3.40
2023-04-15T09:50:03.523Z,2.33
2023-04-15T09:52:33.552Z,2.20
2023-04-15T09:55:03.105Z,2.10
2023-04-15T09:57:41.145Z,2.20
2023-04-15T10:00:14.079Z,2.76
2023-04-15T10:02:44.414Z,2.30
2023-04-15T10:05:17.945Z,2.50
2023-04-15T10:07:48.301Z,2.30
2023-04-15T10:10:19.014Z,2.53
2023-04-15T10:12:50.554Z,2.10
2023-04-15T10:15:20.663Z,1.97
2023-04-15T10:17:51.838Z,2.15
2023-04-15T10:20:23.576Z,2.00
2023-04-15T10:22:53.976Z,2.30
2023-04-15T10:25:24.648Z,2.40
2023-04-15T10:27:54.493Z,1.95
2023-04-15T10:30:24.580Z,2.10
2023-04-15T10:32:54.869Z,2.10
2023-04-15T10:35:25.477Z,1.92
2023-04-15T10:37:55.271Z,1.63
2023-04-15T10:40:34.717Z,1.90
2023-04-15T10:43:05.395Z,3.27
2023-04-15T10:45:37.854Z,2.20
2023-04-15T10:48:10.016Z,2.33
2023-04-15T10:50:39.807Z,1.97
2023-04-15T10:53:11.859Z,2.83
2023-04-15T10:55:41.790Z,2.57
2023-04-15T10:58:12.308Z,2.40
2023-04-15T11:00:43.626Z,2.40
2023-04-15T11:03:13.360Z,2.30
2023-04-15T11:05:52.224Z,2.50
2023-04-15T11:08:23.855Z,2.98
2023-04-15T11:10:54.880Z,2.20
2023-04-15T11:13:27.101Z,2.30
2023-04-15T11:16:01.618Z,1.50
2023-04-15T11:18:33.016Z,1.70
2023-04-15T11:21:05.987Z,1.40
2023-04-15T11:23:47.245Z,1.77
2023-04-15T11:26:17.064Z,1.30
2023-04-15T11:28:48.050Z,1.60
2023-04-15T11:31:20.274Z,3.15
2023-04-15T11:34:02.984Z,2.00
2023-04-15T11:36:33.081Z,1.90
2023-04-15T11:39:02.916Z,2.10
2023-04-15T11:41:32.893Z,2.03
2023-04-15T11:44:03.067Z,2.10
2023-04-15T11:46:33.153Z,2.07
2023-04-15T11:49:04.742Z,1.70
2023-04-15T11:51:35.465Z,1.90
2023-04-15T11:54:06.552Z,1.50
2023-04-15T11:56:36.521Z,1.90
2023-04-15T11:59:06.045Z,1.60
2023-04-15T12:01:41.278Z,1.70
2023-04-15T12:04:15.952Z,2.00
2023-04-15T12:06:46.867Z,2.40
2023-04-15T12:09:17.532Z,1.60
2023-04-15T12:11:54.107Z,1.30
2023-04-15T12:14:26.735Z,1.55
2023-04-15T12:17:00.218Z,1.23
2023-04-15T12:19:39.084Z,1.53
2023-04-15T12:22:13.242Z,1.15
2023-04-15T12:24:44.338Z,1.37
2023-04-15T12:27:16.252Z,1.20
2023-04-15T12:29:46.140Z,1.07
2023-04-15T12:32:17.612Z,1.80
2023-04-15T12:34:52.650Z,1.50
2023-04-15T12:37:23.002Z,1.90
2023-04-15T12:39:53.965Z,1.67
2023-04-15T12:42:24.066Z,1.70
2023-04-15T12:44:54.076Z,1.57
2023-04-15T12:47:23.906Z,1.00
2023-04-15T12:49:53.711Z,1.30
2023-04-15T12:52:24.376Z,1.30
2023-04-15T12:54:54.866Z,1.70
2023-04-15T12:57:24.667Z,1.43
2023-04-15T12:59:54.829Z,1.50
2023-04-15T13:02:26.899Z,1.67
2023-04-15T13:04:56.994Z,1.50
2023-04-15T13:07:27.050Z,1.83
2023-04-15T13:09:56.854Z,1.90
2023-04-15T13:12:27.013Z,1.70
2023-04-15T13:14:56.862Z,1.90
2023-04-15T13:17:27.072Z,1.60
2023-04-15T13:19:57.080Z,1.20
2023-04-15T13:22:27.143Z,1.25
2023-04-15T13:24:56.987Z,1.07
2023-04-15T13:27:27.498Z,1.07
2023-04-15T13:29:57.582Z,1.00
2023-04-15T13:32:27.374Z,1.00
2023-04-15T13:34:57.236Z,1.00
2023-04-15T13:37:31.201Z,0.80
2023-04-15T13:40:01.095Z,0.97
2023-04-15T13:42:30.960Z,0.70
2023-04-15T13:45:00.906Z,1.10
2023-04-15T13:47:30.722Z,0.90
2023-04-15T13:50:00.308Z,1.00
2023-04-15T13:52:30.074Z,0.97
2023-04-15T13:55:07.210Z,0.63
2023-04-15T13:57:32.127Z,0.60
2023-04-15T14:00:02.305Z,0.60
2023-04-15T14:02:33.934Z,0.60
2023-04-15T14:05:03.845Z,0.63
2023-04-15T14:07:33.691Z,0.80
2023-04-15T14:10:03.644Z,0.87
2023-04-15T14:12:33.264Z,1.00
2023-04-15T14:15:03.153Z,1.00
2023-04-15T14:17:34.009Z,0.60
2023-04-15T14:20:03.985Z,0.80
2023-04-15T14:22:34.226Z,0.78
2023-04-15T14:25:04.076Z,0.60
2023-04-15T14:27:33.932Z,0.70
2023-04-15T14:30:03.894Z,0.60
2023-04-15T14:32:33.769Z,0.60
2023-04-15T14:35:04.304Z,0.60
2023-04-15T14:37:34.297Z,0.70
2023-04-15T14:40:07.458Z,0.90
2023-04-15T14:42:38.251Z,0.67
2023-04-15T14:45:08.383Z,0.87
2023-04-15T14:47:38.366Z,1.10
2023-04-15T14:50:10.494Z,0.80
2023-04-15T14:52:40.421Z,0.87
2023-04-15T14:55:12.668Z,0.90
2023-04-15T14:57:43.938Z,0.90
2023-04-15T15:00:16.347Z,0.88
2023-04-15T15:02:47.525Z,0.70
2023-04-15T15:05:17.534Z,0.70
2023-04-15T15:07:47.793Z,0.98
2023-04-15T15:10:17.305Z,1.40
2023-04-15T15:12:48.812Z,1.10
2023-04-15T15:15:28.598Z,1.35
2023-04-15T15:17:50.940Z,1.25
2023-04-15T15:20:20.640Z,1.30
2023-04-15T15:22:50.953Z,1.30
2023-04-15T15:25:20.945Z,1.32
2023-04-15T15:27:50.981Z,1.30
2023-04-15T15:30:20.815Z,1.43
2023-04-15T15:32:50.802Z,1.47
2023-04-15T15:35:22.365Z,1.55
2023-04-15T15:37:52.201Z,1.40
2023-04-15T15:40:22.135Z,1.50
2023-04-15T15:42:51.928Z,2.00
2023-04-15T15:45:21.781Z,1.62
2023-04-15T15:47:52.313Z,1.40
2023-04-15T15:50:22.175Z,1.80
2023-04-15T15:52:52.242Z,2.00
2023-04-15T15:55:22.044Z,1.65
2023-04-15T15:57:51.882Z,1.83
2023-04-15T16:00:21.823Z,1.30
2023-04-15T16:05:23.132Z,1.65
2023-04-15T16:07:52.936Z,1.10
2023-04-15T16:10:22.774Z,1.20
2023-04-15T16:15:29.110Z,1.27
2023-04-15T16:17:59.060Z,1.30
2023-04-15T16:20:29.020Z,1.40
2023-04-15T16:23:00.072Z,1.40
2023-04-15T16:25:30.261Z,1.30
2023-04-15T16:28:08.611Z,1.53
2023-04-15T16:30:31.752Z,1.20
2023-04-15T16:33:01.884Z,1.13
2023-04-15T16:35:33.376Z,1.30
2023-04-15T16:38:03.564Z,1.17
2023-04-15T16:40:33.495Z,1.20
2023-04-15T16:43:07.001Z,1.20
2023-04-15T16:45:36.896Z,1.53
2023-04-15T16:48:08.402Z,1.95
2023-04-15T16:50:38.692Z,1.70
2023-04-15T16:53:08.792Z,1.90
2023-04-15T16:55:38.578Z,1.40
2023-04-15T16:58:09.555Z,1.77
2023-04-15T17:00:39.533Z,1.20
2023-04-15T17:03:09.518Z,0.80
2023-04-15T17:05:39.924Z,0.93
2023-04-15T17:08:11.141Z,1.22
2023-04-15T17:10:41.586Z,1.00
2023-04-15T17:13:11.536Z,1.10
2023-04-15T17:15:41.669Z,1.15
2023-04-15T17:18:12.124Z,1.70
2023-04-15T17:20:42.033Z,3.43
2023-04-15T17:23:12.383Z,32.75
2023-04-15T17:25:42.243Z,7.63
2023-04-15T17:28:12.074Z,5.00
2023-04-15T17:30:41.992Z,2.47
2023-04-15T17:33:55.929Z,1.50
2023-04-15T17:35:43.618Z,1.83
2023-04-15T17:38:13.219Z,2.80
2023-04-15T17:40:43.341Z,6.30
2023-04-15T17:43:13.145Z,7.90
2023-04-15T17:45:43.738Z,6.53
2023-04-15T17:48:13.422Z,23.27
2023-04-15T17:50:43.274Z,5.90
2023-04-15T17:53:14.734Z,1.83
2023-04-15T17:55:44.605Z,1.67
2023-04-15T17:58:14.217Z,2.50
2023-04-15T18:00:44.115Z,2.23
2023-04-15T18:03:14.490Z,13.17
2023-04-15T18:05:44.520Z,5.20
2023-04-15T18:08:14.325Z,4.67
2023-04-15T18:10:45.751Z,3.80
2023-04-15T18:13:15.950Z,3.17
2023-04-15T18:15:47.610Z,9.87
2023-04-15T18:18:17.340Z,2.17
2023-04-15T18:20:47.434Z,2.05
2023-04-15T18:23:17.360Z,4.00
2023-04-15T18:25:47.254Z,1.37
2023-04-15T18:28:16.802Z,1.72
2023-04-15T18:30:46.678Z,1.37
2023-04-15T18:33:16.807Z,1.42
2023-04-15T18:35:48.125Z,1.93
2023-04-15T18:38:18.143Z,1.67
2023-04-15T18:40:48.245Z,1.00
2023-04-15T18:43:18.124Z,1.20
2023-04-15T18:45:48.066Z,1.33
2023-04-15T18:48:17.873Z,2.00
2023-04-15T18:50:48.258Z,1.17
2023-04-15T18:53:18.154Z,1.80
2023-04-15T18:55:48.005Z,1.43
2023-04-15T18:58:17.987Z,1.53
2023-04-15T19:00:47.883Z,1.30
2023-04-15T19:03:17.877Z,1.30
2023-04-15T19:05:48.190Z,1.57
2023-04-15T19:08:17.769Z,1.27
2023-04-15T19:10:47.611Z,1.43
2023-04-15T19:13:18.866Z,1.47
2023-04-15T19:15:48.716Z,1.13
2023-04-15T19:18:18.223Z,17.03
2023-04-15T19:20:49.755Z,12.43
2023-04-15T19:23:19.755Z,4.20
2023-04-15T19:25:49.634Z,4.33
2023-04-15T19:28:19.177Z,8.30
2023-04-15T19:30:49.327Z,9.55
2023-04-15T19:33:19.176Z,3.63
2023-04-15T19:35:49.938Z,2.67
2023-04-15T19:38:19.850Z,2.00
2023-04-15T19:40:50.577Z,3.30
2023-04-15T19:43:20.449Z,2.07
2023-04-15T19:45:52.193Z,1.73
2023-04-15T19:48:23.832Z,1.90
2023-04-15T19:50:54.115Z,1.70
2023-04-15T19:53:25.578Z,2.00
2023-04-15T19:55:55.465Z,2.10
2023-04-15T19:58:25.277Z,1.57
2023-04-15T20:00:55.089Z,1.80
2023-04-15T20:03:25.199Z,1.73
2023-04-15T20:05:55.135Z,1.70
2023-04-15T20:08:24.621Z,1.67
2023-04-15T20:10:54.601Z,1.83
2023-04-15T20:13:24.695Z,1.87
2023-04-15T20:15:54.571Z,1.47
2023-04-15T20:18:24.419Z,1.50
2023-04-15T20:20:54.246Z,1.53
2023-04-15T20:23:24.049Z,2.43
2023-04-15T20:25:53.933Z,2.43
2023-04-15T20:28:25.093Z,1.60
2023-04-15T20:30:55.345Z,1.30
2023-04-15T20:33:27.196Z,1.10
2023-04-15T20:35:57.075Z,1.50
2023-04-15T20:38:26.710Z,1.45
2023-04-15T20:40:57.821Z,1.40
2023-04-15T20:43:27.644Z,1.97
2023-04-15T20:46:00.204Z,1.87
2023-04-15T20:48:28.928Z,2.08
2023-04-15T20:50:59.047Z,1.70
2023-04-15T20:53:28.847Z,1.40
2023-04-15T20:56:00.242Z,1.67
2023-04-15T20:58:30.054Z,2.10
2023-04-15T21:01:01.956Z,2.10
2023-04-15T21:03:32.283Z,1.67
2023-04-15T21:06:02.285Z,2.27
2023-04-15T21:08:32.244Z,2.10
2023-04-15T21:11:02.381Z,2.12
2023-04-15T21:13:32.254Z,1.57
2023-04-15T21:16:02.129Z,2.10
2023-04-15T21:18:31.984Z,1.70
2023-04-15T21:21:03.222Z,2.10
2023-04-15T21:23:34.718Z,9.33
2023-04-15T21:26:06.555Z,2.08
2023-04-15T21:28:37.121Z,1.65
2023-04-15T21:31:07.194Z,2.23
2023-04-15T21:33:37.262Z,1.70
2023-04-15T21:36:08.238Z,1.50
2023-04-15T21:38:38.070Z,1.80
2023-04-15T21:41:09.711Z,1.57
2023-04-15T21:43:39.740Z,1.63
2023-04-15T21:46:22.539Z,1.84
2023-04-15T21:48:42.993Z,1.92
2023-04-15T21:51:12.955Z,2.62
2023-04-15T21:53:42.781Z,1.47
2023-04-15T21:56:12.596Z,1.57
2023-04-15T21:58:42.906Z,1.63
2023-04-15T22:01:12.711Z,2.20
2023-04-15T22:03:43.983Z,1.60
2023-04-15T22:06:13.794Z,1.83
2023-04-15T22:08:55.214Z,1.60
2023-04-15T22:11:30.367Z,1.60
2023-04-15T22:14:00.692Z,1.67
2023-04-15T22:16:30.254Z,1.70
2023-04-15T22:19:00.274Z,2.23
2023-04-15T22:21:30.058Z,2.03
2023-04-15T22:24:38.261Z,1.90
2023-04-15T22:26:31.314Z,1.87
2023-04-15T22:29:01.108Z,2.13
2023-04-15T22:31:31.150Z,2.10
2023-04-15T22:34:01.132Z,2.27
2023-04-15T22:36:31.812Z,2.40
2023-04-15T22:39:01.752Z,2.43
2023-04-15T22:41:31.534Z,2.40
2023-04-15T22:44:01.130Z,2.45
2023-04-15T22:46:31.198Z,2.70
2023-04-15T22:49:01.291Z,2.70
2023-04-15T22:51:31.437Z,2.43
2023-04-15T22:54:01.879Z,2.85
2023-04-15T22:56:31.703Z,2.77
2023-04-15T22:59:01.519Z,2.50
2023-04-15T23:01:32.173Z,2.50
2023-04-15T23:04:08.152Z,2.93
2023-04-15T23:06:33.676Z,2.53
2023-04-15T23:09:03.497Z,2.40
2023-04-15T23:11:33.364Z,2.23
2023-04-15T23:14:03.260Z,2.90
2023-04-15T23:16:33.131Z,2.67
2023-04-15T23:19:02.937Z,2.70
2023-04-15T23:21:33.031Z,2.25
2023-04-15T23:24:02.941Z,2.53
2023-04-15T23:26:32.887Z,2.77
2023-04-15T23:29:02.704Z,2.77
2023-04-15T23:31:32.202Z,3.00
2023-04-15T23:34:02.313Z,2.90
2023-04-15T23:36:32.212Z,2.87
2023-04-15T23:39:02.200Z,2.93
2023-04-15T23:41:31.930Z,2.77
2023-04-15T23:44:01.893Z,3.03
2023-04-15T23:46:31.728Z,3.37
2023-04-15T23:49:01.616Z,3.03
2023-04-15T23:51:31.481Z,3.13
2023-04-15T23:54:01.326Z,3.07
2023-04-15T23:56:31.697Z,3.17
2023-04-15T23:59:01.235Z,2.87
